WAT3465 ESSA-ENZV
Flight info
| Callsign | WAT3465 |
|---|---|
| Flight time | 1h 8m |
| Altitude | 38000 |
| Route | ARS N623 BEDLA P609 KSD DCT VATEX DCT NEDZA DCT RIPAM DCT ROPNO |
| Aircraft | A320/M-SDE3FGHIRWY/LB1 |
Departure
| Time | 2026-05-06 17:29 |
|---|---|
| Airport | Stockholm-Arlanda Airport (ESSA) |
Arrival
| Time | 2026-05-06 18:38 |
|---|---|
| Airport | Stavanger Airport, Sola (ENZV) |
| Time | Latitude | Longitude | Altitude | Speed | Heading |
|---|---|---|---|---|---|
| 2026-05-06 17:03 | 59.65144 | 17.92710 | 138 ft | 0 kts | 191° |
| 2026-05-06 17:20 | 59.65147 | 17.92711 | 138 ft | 2 kts | 191° |
| 2026-05-06 17:20 | 59.65165 | 17.92718 | 138 ft | 3 kts | 194° |
| 2026-05-06 17:21 | 59.65178 | 17.92725 | 138 ft | 3 kts | 198° |
| 2026-05-06 17:21 | 59.65203 | 17.92744 | 138 ft | 3 kts | 212° |
| 2026-05-06 17:21 | 59.65217 | 17.92768 | 138 ft | 3 kts | 249° |
| 2026-05-06 17:21 | 59.65220 | 17.92788 | 138 ft | 0 kts | 287° |
| 2026-05-06 17:22 | 59.65220 | 17.92789 | 138 ft | 0 kts | 287° |
| 2026-05-06 17:25 | 59.65224 | 17.92763 | 138 ft | 3 kts | 286° |
| 2026-05-06 17:25 | 59.65236 | 17.92684 | 138 ft | 7 kts | 289° |
| 2026-05-06 17:25 | 59.65254 | 17.92589 | 138 ft | 7 kts | 290° |
| 2026-05-06 17:25 | 59.65283 | 17.92449 | 138 ft | 13 kts | 292° |
| 2026-05-06 17:26 | 59.65313 | 17.92303 | 138 ft | 10 kts | 309° |
| 2026-05-06 17:26 | 59.65376 | 17.92283 | 138 ft | 10 kts | 9° |
| 2026-05-06 17:26 | 59.65449 | 17.92309 | 138 ft | 14 kts | 10° |
| 2026-05-06 17:26 | 59.65582 | 17.92359 | 138 ft | 20 kts | 10° |
| 2026-05-06 17:27 | 59.65713 | 17.92405 | 138 ft | 18 kts | 10° |
| 2026-05-06 17:27 | 59.65833 | 17.92447 | 138 ft | 17 kts | 11° |
| 2026-05-06 17:27 | 59.65902 | 17.92421 | 138 ft | 9 kts | 305° |
| 2026-05-06 17:27 | 59.65916 | 17.92320 | 139 ft | 6 kts | 280° |
| 2026-05-06 17:28 | 59.65922 | 17.92256 | 141 ft | 7 kts | 280° |
| 2026-05-06 17:28 | 59.65928 | 17.92188 | 145 ft | 3 kts | 275° |
| 2026-05-06 17:28 | 59.65885 | 17.92105 | 145 ft | 12 kts | 194° |
| 2026-05-06 17:28 | 59.65774 | 17.92064 | 143 ft | 34 kts | 191° |
| 2026-05-06 17:29 | 59.65294 | 17.91888 | 144 ft | 103 kts | 190° |
| 2026-05-06 17:29 | 59.64403 | 17.91563 | 200 ft | 150 kts | 189° |
| 2026-05-06 17:29 | 59.63395 | 17.91157 | 875 ft | 148 kts | 188° |
| 2026-05-06 17:29 | 59.62373 | 17.90778 | 1521 ft | 155 kts | 189° |
| 2026-05-06 17:30 | 59.61297 | 17.89954 | 1907 ft | 181 kts | 219° |
| 2026-05-06 17:30 | 59.60512 | 17.87832 | 2303 ft | 205 kts | 235° |
| 2026-05-06 17:30 | 59.59726 | 17.85297 | 2848 ft | 221 kts | 237° |
| 2026-05-06 17:30 | 59.58937 | 17.82694 | 3792 ft | 222 kts | 237° |
| 2026-05-06 17:31 | 59.58142 | 17.80014 | 4494 ft | 237 kts | 241° |
| 2026-05-06 17:31 | 59.57357 | 17.76966 | 5027 ft | 257 kts | 244° |
| 2026-05-06 17:31 | 59.56715 | 17.73643 | 5871 ft | 264 kts | 262° |
| 2026-05-06 17:31 | 59.56758 | 17.70057 | 6757 ft | 267 kts | 276° |
| 2026-05-06 17:32 | 59.56905 | 17.66404 | 7748 ft | 267 kts | 274° |
| 2026-05-06 17:32 | 59.56996 | 17.62745 | 8742 ft | 268 kts | 272° |
| 2026-05-06 17:32 | 59.57062 | 17.59056 | 9705 ft | 270 kts | 272° |
| 2026-05-06 17:32 | 59.57122 | 17.55308 | 10375 ft | 281 kts | 272° |
| 2026-05-06 17:33 | 59.57194 | 17.51287 | 10666 ft | 305 kts | 272° |
| 2026-05-06 17:33 | 59.57278 | 17.46955 | 10945 ft | 326 kts | 272° |
| 2026-05-06 17:33 | 59.57368 | 17.42437 | 11602 ft | 333 kts | 272° |
| 2026-05-06 17:33 | 59.57453 | 17.37843 | 12368 ft | 337 kts | 271° |
| 2026-05-06 17:34 | 59.57537 | 17.33205 | 13150 ft | 340 kts | 271° |
| 2026-05-06 17:34 | 59.57620 | 17.28523 | 13908 ft | 343 kts | 271° |
| 2026-05-06 17:34 | 59.57704 | 17.23804 | 14601 ft | 346 kts | 271° |
| 2026-05-06 17:34 | 59.57789 | 17.19040 | 15302 ft | 348 kts | 271° |
| 2026-05-06 17:35 | 59.57873 | 17.14270 | 16011 ft | 349 kts | 271° |
| 2026-05-06 17:35 | 59.57955 | 17.09465 | 16718 ft | 351 kts | 270° |
| 2026-05-06 17:35 | 59.58035 | 17.04631 | 17422 ft | 353 kts | 270° |
| 2026-05-06 17:36 | 59.58195 | 16.94873 | 18733 ft | 358 kts | 270° |
| 2026-05-06 17:36 | 59.58271 | 16.89961 | 19342 ft | 360 kts | 270° |
| 2026-05-06 17:36 | 59.58346 | 16.85014 | 19957 ft | 361 kts | 269° |
| 2026-05-06 17:36 | 59.58417 | 16.80110 | 20554 ft | 363 kts | 269° |
| 2026-05-06 17:37 | 59.58453 | 16.75121 | 21139 ft | 364 kts | 267° |
| 2026-05-06 17:37 | 59.58372 | 16.70130 | 21711 ft | 365 kts | 265° |
| 2026-05-06 17:37 | 59.58215 | 16.65119 | 22272 ft | 366 kts | 264° |
| 2026-05-06 17:37 | 59.58024 | 16.60092 | 22820 ft | 368 kts | 263° |
| 2026-05-06 17:38 | 59.57831 | 16.55054 | 23350 ft | 370 kts | 263° |
| 2026-05-06 17:38 | 59.57646 | 16.49981 | 23806 ft | 371 kts | 263° |
| 2026-05-06 17:38 | 59.57475 | 16.44885 | 24219 ft | 373 kts | 263° |
| 2026-05-06 17:38 | 59.57315 | 16.39770 | 24641 ft | 374 kts | 263° |
| 2026-05-06 17:39 | 59.57160 | 16.34637 | 25046 ft | 375 kts | 263° |
| 2026-05-06 17:39 | 59.57005 | 16.29498 | 25441 ft | 377 kts | 263° |
| 2026-05-06 17:39 | 59.56847 | 16.24330 | 25832 ft | 378 kts | 263° |
| 2026-05-06 17:39 | 59.56682 | 16.19145 | 26210 ft | 379 kts | 263° |
| 2026-05-06 17:40 | 59.56511 | 16.13956 | 26585 ft | 380 kts | 262° |
| 2026-05-06 17:40 | 59.56336 | 16.08738 | 26948 ft | 382 kts | 262° |
| 2026-05-06 17:40 | 59.56160 | 16.03502 | 27299 ft | 383 kts | 262° |
| 2026-05-06 17:40 | 59.55982 | 15.98249 | 27642 ft | 384 kts | 262° |
| 2026-05-06 17:41 | 59.55801 | 15.92989 | 27970 ft | 386 kts | 262° |
| 2026-05-06 17:41 | 59.55616 | 15.87701 | 28293 ft | 387 kts | 261° |
| 2026-05-06 17:41 | 59.55428 | 15.82394 | 28587 ft | 388 kts | 261° |
| 2026-05-06 17:41 | 59.55238 | 15.77069 | 28879 ft | 390 kts | 261° |
| 2026-05-06 17:42 | 59.55049 | 15.71739 | 29159 ft | 391 kts | 261° |
| 2026-05-06 17:42 | 59.54858 | 15.66454 | 29421 ft | 392 kts | 261° |
| 2026-05-06 17:42 | 59.54664 | 15.61103 | 29787 ft | 390 kts | 261° |
| 2026-05-06 17:42 | 59.54469 | 15.55783 | 30139 ft | 389 kts | 261° |
| 2026-05-06 17:43 | 59.54269 | 15.50469 | 30439 ft | 388 kts | 261° |
| 2026-05-06 17:43 | 59.54068 | 15.45160 | 30719 ft | 388 kts | 261° |
| 2026-05-06 17:43 | 59.53866 | 15.39862 | 30991 ft | 388 kts | 261° |
| 2026-05-06 17:43 | 59.53662 | 15.34550 | 31258 ft | 389 kts | 261° |
| 2026-05-06 17:44 | 59.53455 | 15.29235 | 31528 ft | 389 kts | 260° |
| 2026-05-06 17:44 | 59.53247 | 15.23919 | 31808 ft | 389 kts | 261° |
| 2026-05-06 17:44 | 59.53037 | 15.18602 | 32088 ft | 389 kts | 261° |
| 2026-05-06 17:44 | 59.52823 | 15.13298 | 32371 ft | 389 kts | 261° |
| 2026-05-06 17:45 | 59.52605 | 15.07983 | 32650 ft | 389 kts | 261° |
| 2026-05-06 17:45 | 59.52385 | 15.02668 | 32943 ft | 389 kts | 261° |
| 2026-05-06 17:45 | 59.52162 | 14.97356 | 33218 ft | 389 kts | 261° |
| 2026-05-06 17:45 | 59.51936 | 14.92045 | 33499 ft | 389 kts | 261° |
| 2026-05-06 17:46 | 59.51708 | 14.86745 | 33784 ft | 389 kts | 261° |
| 2026-05-06 17:46 | 59.51480 | 14.81435 | 34048 ft | 389 kts | 261° |
| 2026-05-06 17:46 | 59.51251 | 14.76120 | 34270 ft | 390 kts | 261° |
| 2026-05-06 17:46 | 59.51020 | 14.70795 | 34483 ft | 391 kts | 261° |
| 2026-05-06 17:47 | 59.50784 | 14.65470 | 34687 ft | 392 kts | 261° |
| 2026-05-06 17:47 | 59.50544 | 14.60108 | 34887 ft | 393 kts | 261° |
| 2026-05-06 17:47 | 59.50322 | 14.54750 | 35078 ft | 395 kts | 264° |
| 2026-05-06 17:47 | 59.50283 | 14.49323 | 35269 ft | 397 kts | 266° |
| 2026-05-06 17:48 | 59.50297 | 14.43946 | 35450 ft | 399 kts | 266° |
| 2026-05-06 17:48 | 59.50341 | 14.38481 | 35630 ft | 400 kts | 267° |
| 2026-05-06 17:48 | 59.50396 | 14.33014 | 35811 ft | 400 kts | 267° |
| 2026-05-06 17:48 | 59.50445 | 14.27524 | 35989 ft | 401 kts | 267° |
| 2026-05-06 17:49 | 59.50484 | 14.22024 | 36161 ft | 402 kts | 267° |
| 2026-05-06 17:49 | 59.50512 | 14.16526 | 36341 ft | 403 kts | 267° |
| 2026-05-06 17:49 | 59.50535 | 14.11006 | 36500 ft | 403 kts | 267° |
| 2026-05-06 17:49 | 59.50555 | 14.05476 | 36660 ft | 404 kts | 267° |
| 2026-05-06 17:50 | 59.50573 | 13.99936 | 36817 ft | 405 kts | 267° |
| 2026-05-06 17:50 | 59.50586 | 13.94385 | 36970 ft | 406 kts | 267° |
| 2026-05-06 17:50 | 59.50597 | 13.88836 | 37125 ft | 406 kts | 267° |
| 2026-05-06 17:50 | 59.50605 | 13.83266 | 37280 ft | 407 kts | 267° |
| 2026-05-06 17:51 | 59.50611 | 13.77686 | 37432 ft | 408 kts | 267° |
| 2026-05-06 17:51 | 59.50617 | 13.72095 | 37571 ft | 409 kts | 267° |
| 2026-05-06 17:51 | 59.50619 | 13.66504 | 37710 ft | 409 kts | 267° |
| 2026-05-06 17:51 | 59.50618 | 13.60894 | 37884 ft | 410 kts | 267° |
| 2026-05-06 17:52 | 59.50612 | 13.49615 | 37948 ft | 413 kts | 267° |
| 2026-05-06 17:52 | 59.50595 | 13.38292 | 37949 ft | 414 kts | 267° |
| 2026-05-06 17:53 | 59.50568 | 13.26947 | 37947 ft | 415 kts | 267° |
| 2026-05-06 17:53 | 59.50534 | 13.15584 | 37946 ft | 415 kts | 267° |
| 2026-05-06 17:54 | 59.50495 | 13.04212 | 37951 ft | 415 kts | 267° |
| 2026-05-06 17:54 | 59.50436 | 12.92921 | 37953 ft | 416 kts | 267° |
| 2026-05-06 17:55 | 59.50369 | 12.81544 | 37948 ft | 416 kts | 266° |
| 2026-05-06 17:55 | 59.50293 | 12.70147 | 37954 ft | 416 kts | 266° |
| 2026-05-06 17:56 | 59.50203 | 12.58759 | 37951 ft | 416 kts | 266° |
| 2026-05-06 17:56 | 59.50111 | 12.47353 | 37950 ft | 417 kts | 266° |
| 2026-05-06 17:57 | 59.50003 | 12.35956 | 37960 ft | 417 kts | 266° |
| 2026-05-06 17:57 | 59.49881 | 12.24547 | 37959 ft | 417 kts | 266° |
| 2026-05-06 17:58 | 59.49756 | 12.13146 | 37954 ft | 417 kts | 266° |
| 2026-05-06 17:58 | 59.49620 | 12.01728 | 37954 ft | 417 kts | 266° |
| 2026-05-06 17:59 | 59.49479 | 11.90306 | 37953 ft | 417 kts | 266° |
| 2026-05-06 17:59 | 59.49330 | 11.78894 | 37959 ft | 417 kts | 266° |
| 2026-05-06 18:00 | 59.49163 | 11.67466 | 37951 ft | 418 kts | 266° |
| 2026-05-06 18:00 | 59.48983 | 11.56051 | 37953 ft | 418 kts | 266° |
| 2026-05-06 18:01 | 59.48797 | 11.44632 | 37965 ft | 418 kts | 266° |
| 2026-05-06 18:01 | 59.48607 | 11.33195 | 37966 ft | 418 kts | 265° |
| 2026-05-06 18:02 | 59.48400 | 11.21769 | 37966 ft | 418 kts | 265° |
| 2026-05-06 18:02 | 59.48185 | 11.10405 | 37960 ft | 418 kts | 265° |
| 2026-05-06 18:03 | 59.47963 | 10.98968 | 37963 ft | 418 kts | 265° |
| 2026-05-06 18:03 | 59.47727 | 10.87533 | 37965 ft | 419 kts | 265° |
| 2026-05-06 18:04 | 59.47482 | 10.76090 | 37968 ft | 419 kts | 265° |
| 2026-05-06 18:04 | 59.47221 | 10.64653 | 37963 ft | 419 kts | 265° |
| 2026-05-06 18:05 | 59.46953 | 10.53202 | 37962 ft | 419 kts | 265° |
| 2026-05-06 18:05 | 59.46681 | 10.41763 | 37959 ft | 419 kts | 265° |
| 2026-05-06 18:06 | 59.46398 | 10.30310 | 37954 ft | 419 kts | 265° |
| 2026-05-06 18:06 | 59.46096 | 10.18870 | 37959 ft | 419 kts | 265° |
| 2026-05-06 18:07 | 59.45789 | 10.07418 | 37958 ft | 419 kts | 265° |
| 2026-05-06 18:07 | 59.45478 | 9.96045 | 37956 ft | 419 kts | 265° |
| 2026-05-06 18:08 | 59.45155 | 9.84610 | 37957 ft | 419 kts | 265° |
| 2026-05-06 18:08 | 59.44818 | 9.73166 | 37958 ft | 419 kts | 265° |
| 2026-05-06 18:09 | 59.44473 | 9.61737 | 37962 ft | 419 kts | 265° |
| 2026-05-06 18:09 | 59.44110 | 9.50299 | 37964 ft | 419 kts | 265° |
| 2026-05-06 18:10 | 59.43745 | 9.38875 | 37972 ft | 419 kts | 265° |
| 2026-05-06 18:10 | 59.43370 | 9.27441 | 37971 ft | 419 kts | 265° |
| 2026-05-06 18:11 | 59.43051 | 9.17953 | 37978 ft | 419 kts | 264° |
| 2026-05-06 18:11 | 59.42589 | 9.04617 | 37979 ft | 419 kts | 264° |
| 2026-05-06 18:12 | 59.42192 | 8.93197 | 37902 ft | 419 kts | 264° |
| 2026-05-06 18:12 | 59.41987 | 8.87492 | 37633 ft | 418 kts | 264° |
| 2026-05-06 18:12 | 59.41779 | 8.81823 | 37371 ft | 416 kts | 264° |
| 2026-05-06 18:13 | 59.41568 | 8.76163 | 37115 ft | 415 kts | 264° |
| 2026-05-06 18:13 | 59.41355 | 8.70524 | 36862 ft | 413 kts | 264° |
| 2026-05-06 18:13 | 59.41140 | 8.64905 | 36614 ft | 412 kts | 264° |
| 2026-05-06 18:13 | 59.40924 | 8.59308 | 36363 ft | 410 kts | 264° |
| 2026-05-06 18:14 | 59.40708 | 8.53740 | 36117 ft | 409 kts | 264° |
| 2026-05-06 18:14 | 59.40491 | 8.48178 | 35873 ft | 408 kts | 264° |
| 2026-05-06 18:14 | 59.40345 | 8.44499 | 35716 ft | 407 kts | 264° |
| 2026-05-06 18:14 | 59.40050 | 8.37178 | 35400 ft | 405 kts | 263° |
| 2026-05-06 18:15 | 59.39821 | 8.31667 | 35153 ft | 404 kts | 263° |
| 2026-05-06 18:15 | 59.39596 | 8.26164 | 34436 ft | 404 kts | 264° |
| 2026-05-06 18:15 | 59.39369 | 8.20683 | 33630 ft | 403 kts | 263° |
| 2026-05-06 18:15 | 59.39141 | 8.15204 | 32694 ft | 402 kts | 263° |
| 2026-05-06 18:16 | 59.38988 | 8.11520 | 32248 ft | 397 kts | 263° |
| 2026-05-06 18:16 | 59.38768 | 8.06225 | 32028 ft | 382 kts | 263° |
| 2026-05-06 18:16 | 59.38555 | 8.01136 | 31987 ft | 365 kts | 262° |
| 2026-05-06 18:16 | 59.38348 | 7.96285 | 31999 ft | 350 kts | 262° |
| 2026-05-06 18:17 | 59.37929 | 7.86891 | 31376 ft | 348 kts | 262° |
| 2026-05-06 18:17 | 59.37703 | 7.82030 | 29882 ft | 367 kts | 262° |
| 2026-05-06 18:17 | 59.37464 | 7.76933 | 28295 ft | 381 kts | 262° |
| 2026-05-06 18:18 | 59.37230 | 7.71770 | 27092 ft | 387 kts | 263° |
| 2026-05-06 18:18 | 59.36994 | 7.66547 | 26253 ft | 383 kts | 263° |
| 2026-05-06 18:18 | 59.36760 | 7.61360 | 25452 ft | 380 kts | 264° |
| 2026-05-06 18:18 | 59.36526 | 7.56216 | 24678 ft | 377 kts | 264° |
| 2026-05-06 18:19 | 59.36292 | 7.51111 | 23943 ft | 374 kts | 264° |
| 2026-05-06 18:19 | 59.36054 | 7.46044 | 23152 ft | 372 kts | 264° |
| 2026-05-06 18:19 | 59.35815 | 7.41023 | 22395 ft | 369 kts | 264° |
| 2026-05-06 18:19 | 59.35575 | 7.36035 | 21695 ft | 366 kts | 264° |
| 2026-05-06 18:20 | 59.35336 | 7.31096 | 20988 ft | 362 kts | 264° |
| 2026-05-06 18:20 | 59.35092 | 7.26154 | 19780 ft | 370 kts | 264° |
| 2026-05-06 18:20 | 59.34839 | 7.21071 | 18685 ft | 377 kts | 264° |
| 2026-05-06 18:20 | 59.34582 | 7.15959 | 17782 ft | 376 kts | 264° |
| 2026-05-06 18:21 | 59.34328 | 7.10870 | 16933 ft | 374 kts | 264° |
| 2026-05-06 18:21 | 59.34076 | 7.05826 | 16127 ft | 372 kts | 264° |
| 2026-05-06 18:21 | 59.33824 | 7.00799 | 15365 ft | 370 kts | 265° |
| 2026-05-06 18:21 | 59.33572 | 6.95800 | 14638 ft | 368 kts | 264° |
| 2026-05-06 18:22 | 59.33310 | 6.90832 | 13929 ft | 366 kts | 263° |
| 2026-05-06 18:22 | 59.32731 | 6.86007 | 13160 ft | 365 kts | 252° |
| 2026-05-06 18:22 | 59.31608 | 6.81548 | 12370 ft | 366 kts | 239° |
| 2026-05-06 18:22 | 59.30012 | 6.77649 | 11553 ft | 369 kts | 228° |
| 2026-05-06 18:23 | 59.28116 | 6.74304 | 11115 ft | 360 kts | 225° |
| 2026-05-06 18:23 | 59.26316 | 6.71180 | 10987 ft | 342 kts | 225° |
| 2026-05-06 18:23 | 59.24583 | 6.68168 | 10848 ft | 325 kts | 225° |
| 2026-05-06 18:23 | 59.22911 | 6.65263 | 10727 ft | 311 kts | 225° |
| 2026-05-06 18:24 | 59.21326 | 6.62513 | 10603 ft | 299 kts | 225° |
| 2026-05-06 18:24 | 59.19823 | 6.59907 | 10473 ft | 287 kts | 225° |
| 2026-05-06 18:24 | 59.18356 | 6.57366 | 10294 ft | 279 kts | 226° |
| 2026-05-06 18:24 | 59.16910 | 6.54864 | 10033 ft | 277 kts | 226° |
| 2026-05-06 18:25 | 59.15468 | 6.52365 | 9873 ft | 278 kts | 225° |
| 2026-05-06 18:25 | 59.14023 | 6.49863 | 9732 ft | 278 kts | 225° |
| 2026-05-06 18:25 | 59.12579 | 6.47369 | 9592 ft | 278 kts | 225° |
| 2026-05-06 18:25 | 59.11130 | 6.44873 | 9459 ft | 278 kts | 225° |
| 2026-05-06 18:26 | 59.09681 | 6.42391 | 9314 ft | 277 kts | 225° |
| 2026-05-06 18:26 | 59.08233 | 6.39918 | 9178 ft | 277 kts | 225° |
| 2026-05-06 18:26 | 59.06791 | 6.37454 | 9027 ft | 276 kts | 225° |
| 2026-05-06 18:26 | 59.05345 | 6.34981 | 8813 ft | 276 kts | 225° |
| 2026-05-06 18:27 | 59.03911 | 6.32529 | 8541 ft | 275 kts | 225° |
| 2026-05-06 18:27 | 59.02472 | 6.30058 | 8265 ft | 278 kts | 225° |
| 2026-05-06 18:27 | 59.01020 | 6.27570 | 8008 ft | 278 kts | 225° |
| 2026-05-06 18:27 | 58.99575 | 6.25106 | 7724 ft | 275 kts | 224° |
| 2026-05-06 18:28 | 58.98164 | 6.22714 | 7427 ft | 271 kts | 225° |
| 2026-05-06 18:28 | 58.96743 | 6.20313 | 7207 ft | 273 kts | 224° |
| 2026-05-06 18:28 | 58.95301 | 6.17888 | 6945 ft | 278 kts | 224° |
| 2026-05-06 18:28 | 58.93840 | 6.15409 | 6733 ft | 280 kts | 224° |
| 2026-05-06 18:29 | 58.92374 | 6.12922 | 6535 ft | 280 kts | 224° |
| 2026-05-06 18:29 | 58.90911 | 6.10462 | 6348 ft | 278 kts | 224° |
| 2026-05-06 18:29 | 58.89460 | 6.08010 | 6153 ft | 276 kts | 224° |
| 2026-05-06 18:29 | 58.88025 | 6.05574 | 5918 ft | 273 kts | 224° |
| 2026-05-06 18:30 | 58.86595 | 6.03154 | 5679 ft | 273 kts | 224° |
| 2026-05-06 18:30 | 58.85165 | 6.00745 | 5408 ft | 274 kts | 224° |
| 2026-05-06 18:30 | 58.83741 | 5.98359 | 5101 ft | 267 kts | 224° |
| 2026-05-06 18:30 | 58.82356 | 5.96040 | 4882 ft | 260 kts | 224° |
| 2026-05-06 18:31 | 58.81001 | 5.93761 | 4655 ft | 257 kts | 224° |
| 2026-05-06 18:31 | 58.79663 | 5.91502 | 4436 ft | 256 kts | 224° |
| 2026-05-06 18:31 | 58.78303 | 5.89221 | 4173 ft | 261 kts | 224° |
| 2026-05-06 18:31 | 58.76920 | 5.86919 | 3973 ft | 264 kts | 224° |
| 2026-05-06 18:32 | 58.75537 | 5.84626 | 3793 ft | 258 kts | 224° |
| 2026-05-06 18:32 | 58.74191 | 5.82401 | 3550 ft | 253 kts | 224° |
| 2026-05-06 18:32 | 58.72865 | 5.80211 | 3246 ft | 248 kts | 224° |
| 2026-05-06 18:32 | 58.71798 | 5.77726 | 3055 ft | 238 kts | 250° |
| 2026-05-06 18:33 | 58.71458 | 5.74739 | 2992 ft | 226 kts | 275° |
| 2026-05-06 18:33 | 58.71695 | 5.71912 | 2987 ft | 205 kts | 293° |
| 2026-05-06 18:33 | 58.72192 | 5.69413 | 2938 ft | 191 kts | 295° |
| 2026-05-06 18:33 | 58.72665 | 5.67160 | 2901 ft | 174 kts | 304° |
| 2026-05-06 18:34 | 58.73411 | 5.65506 | 2778 ft | 160 kts | 324° |
| 2026-05-06 18:34 | 58.74354 | 5.64498 | 2599 ft | 153 kts | 342° |
| 2026-05-06 18:34 | 58.75381 | 5.64146 | 2413 ft | 151 kts | 358° |
| 2026-05-06 18:34 | 58.76440 | 5.64126 | 2242 ft | 150 kts | 359° |
| 2026-05-06 18:35 | 58.77466 | 5.64101 | 2011 ft | 144 kts | 358° |
| 2026-05-06 18:35 | 58.78458 | 5.64065 | 1811 ft | 142 kts | 358° |
| 2026-05-06 18:35 | 58.79451 | 5.64035 | 1625 ft | 142 kts | 358° |
| 2026-05-06 18:35 | 58.80398 | 5.64006 | 1484 ft | 130 kts | 357° |
| 2026-05-06 18:36 | 58.81297 | 5.63979 | 1240 ft | 127 kts | 357° |
| 2026-05-06 18:36 | 58.82168 | 5.63954 | 1084 ft | 124 kts | 358° |
| 2026-05-06 18:36 | 58.83033 | 5.63929 | 876 ft | 124 kts | 357° |
| 2026-05-06 18:36 | 58.83886 | 5.63901 | 715 ft | 122 kts | 356° |
| 2026-05-06 18:37 | 58.84740 | 5.63876 | 543 ft | 123 kts | 356° |
| 2026-05-06 18:37 | 58.85598 | 5.63850 | 354 ft | 124 kts | 357° |
| 2026-05-06 18:37 | 58.86453 | 5.63825 | 222 ft | 123 kts | 356° |
| 2026-05-06 18:37 | 58.87312 | 5.63795 | 49 ft | 122 kts | 355° |
| 2026-05-06 18:38 | 58.87995 | 5.63773 | 31 ft | 70 kts | 359° |
| 2026-05-06 18:38 | 58.88385 | 5.63763 | 30 ft | 37 kts | 359° |
| 2026-05-06 18:38 | 58.88614 | 5.63756 | 29 ft | 24 kts | 360° |
| 2026-05-06 18:38 | 58.88697 | 5.63716 | 28 ft | 11 kts | 311° |
| 2026-05-06 18:39 | 58.88709 | 5.63578 | 29 ft | 7 kts | 270° |
| 2026-05-06 18:39 | 58.88709 | 5.63516 | 32 ft | 3 kts | 268° |
| 2026-05-06 18:39 | 58.88705 | 5.63473 | 29 ft | 6 kts | 253° |
| 2026-05-06 18:40 | 58.88645 | 5.63420 | 32 ft | 4 kts | 179° |
| 2026-05-06 18:40 | 58.88619 | 5.63420 | 32 ft | 3 kts | 179° |
| 2026-05-06 18:40 | 58.88558 | 5.63422 | 31 ft | 17 kts | 178° |
| 2026-05-06 18:40 | 58.88442 | 5.63426 | 31 ft | 16 kts | 179° |
| 2026-05-06 18:41 | 58.88332 | 5.63427 | 31 ft | 15 kts | 179° |
| 2026-05-06 18:41 | 58.88228 | 5.63430 | 30 ft | 15 kts | 179° |
| 2026-05-06 18:41 | 58.88128 | 5.63433 | 30 ft | 14 kts | 178° |
| 2026-05-06 18:41 | 58.88039 | 5.63435 | 30 ft | 8 kts | 186° |
| 2026-05-06 18:42 | 58.88013 | 5.63424 | 31 ft | 2 kts | 198° |
| 2026-05-06 18:42 | 58.88002 | 5.63408 | 31 ft | 6 kts | 223° |
| 2026-05-06 18:42 | 58.88001 | 5.63328 | 30 ft | 8 kts | 288° |
| 2026-05-06 18:42 | 58.88038 | 5.63216 | 29 ft | 11 kts | 305° |
| 2026-05-06 18:43 | 58.88035 | 5.63109 | 27 ft | 7 kts | 236° |
| 2026-05-06 18:43 | 58.88007 | 5.63040 | 28 ft | 6 kts | 237° |
| 2026-05-06 18:43 | 58.87991 | 5.62957 | 27 ft | 7 kts | 258° |
| 2026-05-06 18:43 | 58.87989 | 5.62845 | 26 ft | 9 kts | 288° |
| 2026-05-06 18:44 | 58.88026 | 5.62821 | 25 ft | 4 kts | 7° |
| 2026-05-06 18:44 | 58.88047 | 5.62820 | 25 ft | 2 kts | 358° |
| 2026-05-06 18:44 | 58.88057 | 5.62820 | 25 ft | 0 kts | 358° |